sensor_id;sensor_type;location;lat;lon;timestamp;P1;durP1;ratioP1;P2;durP2;ratioP2
9972;SDS011;5027;53.560;10.062;2023-04-01T00:01:24;6.43;;;3.67;;
9972;SDS011;5027;53.560;10.062;2023-04-01T00:03:51;6.03;;;4.47;;
9972;SDS011;5027;53.560;10.062;2023-04-01T00:06:18;8.60;;;4.80;;
9972;SDS011;5027;53.560;10.062;2023-04-01T00:08:45;8.17;;;5.40;;
9972;SDS011;5027;53.560;10.062;2023-04-01T00:11:12;8.63;;;3.90;;
9972;SDS011;5027;53.560;10.062;2023-04-01T00:13:39;8.13;;;4.60;;
9972;SDS011;5027;53.560;10.062;2023-04-01T00:16:06;6.03;;;4.27;;
9972;SDS011;5027;53.560;10.062;2023-04-01T00:18:46;5.67;;;4.27;;
9972;SDS011;5027;53.560;10.062;2023-04-01T00:21:13;6.50;;;4.60;;
9972;SDS011;5027;53.560;10.062;2023-04-01T00:23:40;8.67;;;4.17;;
9972;SDS011;5027;53.560;10.062;2023-04-01T00:26:07;7.93;;;4.00;;
9972;SDS011;5027;53.560;10.062;2023-04-01T00:28:34;7.47;;;4.07;;
9972;SDS011;5027;53.560;10.062;2023-04-01T00:31:05;7.23;;;3.93;;
9972;SDS011;5027;53.560;10.062;2023-04-01T00:33:33;7.60;;;3.63;;
9972;SDS011;5027;53.560;10.062;2023-04-01T00:36:05;10.27;;;4.03;;
9972;SDS011;5027;53.560;10.062;2023-04-01T00:38:39;6.87;;;3.73;;
9972;SDS011;5027;53.560;10.062;2023-04-01T00:41:07;6.23;;;3.90;;
9972;SDS011;5027;53.560;10.062;2023-04-01T00:43:40;6.13;;;3.87;;
9972;SDS011;5027;53.560;10.062;2023-04-01T00:46:08;7.40;;;4.43;;
9972;SDS011;5027;53.560;10.062;2023-04-01T00:48:36;6.53;;;3.70;;
9972;SDS011;5027;53.560;10.062;2023-04-01T00:51:20;8.17;;;4.10;;
9972;SDS011;5027;53.560;10.062;2023-04-01T00:53:52;4.73;;;3.40;;
9972;SDS011;5027;53.560;10.062;2023-04-01T00:56:22;6.40;;;4.07;;
9972;SDS011;5027;53.560;10.062;2023-04-01T00:59:11;5.87;;;3.73;;
9972;SDS011;5027;53.560;10.062;2023-04-01T01:01:42;6.83;;;4.23;;
9972;SDS011;5027;53.560;10.062;2023-04-01T01:04:22;7.90;;;3.97;;
9972;SDS011;5027;53.560;10.062;2023-04-01T01:07:14;7.83;;;4.03;;
9972;SDS011;5027;53.560;10.062;2023-04-01T01:10:29;7.97;;;3.80;;
9972;SDS011;5027;53.560;10.062;2023-04-01T01:13:54;5.20;;;3.70;;
9972;SDS011;5027;53.560;10.062;2023-04-01T01:16:14;6.60;;;4.00;;
9972;SDS011;5027;53.560;10.062;2023-04-01T01:24:40;6.13;;;3.63;;
9972;SDS011;5027;53.560;10.062;2023-04-01T01:27:37;7.67;;;3.67;;
9972;SDS011;5027;53.560;10.062;2023-04-01T01:30:10;9.57;;;4.10;;
9972;SDS011;5027;53.560;10.062;2023-04-01T01:32:59;6.60;;;3.37;;
9972;SDS011;5027;53.560;10.062;2023-04-01T01:35:36;5.43;;;3.80;;
9972;SDS011;5027;53.560;10.062;2023-04-01T01:38:15;6.40;;;3.90;;
9972;SDS011;5027;53.560;10.062;2023-04-01T01:40:52;7.60;;;3.87;;
9972;SDS011;5027;53.560;10.062;2023-04-01T01:43:25;7.47;;;4.23;;
9972;SDS011;5027;53.560;10.062;2023-04-01T01:45:57;8.13;;;4.70;;
9972;SDS011;5027;53.560;10.062;2023-04-01T01:48:29;6.20;;;4.20;;
9972;SDS011;5027;53.560;10.062;2023-04-01T01:50:57;9.17;;;4.63;;
9972;SDS011;5027;53.560;10.062;2023-04-01T01:53:24;7.43;;;4.20;;
9972;SDS011;5027;53.560;10.062;2023-04-01T01:55:51;6.73;;;4.27;;
9972;SDS011;5027;53.560;10.062;2023-04-01T01:58:32;6.27;;;3.90;;
9972;SDS011;5027;53.560;10.062;2023-04-01T02:01:02;6.53;;;4.10;;
9972;SDS011;5027;53.560;10.062;2023-04-01T02:03:33;5.83;;;3.80;;
9972;SDS011;5027;53.560;10.062;2023-04-01T02:06:03;9.47;;;4.30;;
9972;SDS011;5027;53.560;10.062;2023-04-01T02:11:36;5.97;;;4.00;;
9972;SDS011;5027;53.560;10.062;2023-04-01T02:14:15;4.53;;;4.00;;
9972;SDS011;5027;53.560;10.062;2023-04-01T02:19:26;6.23;;;4.20;;
9972;SDS011;5027;53.560;10.062;2023-04-01T02:21:59;7.50;;;3.67;;
9972;SDS011;5027;53.560;10.062;2023-04-01T02:24:30;7.67;;;4.13;;
9972;SDS011;5027;53.560;10.062;2023-04-01T02:26:59;8.23;;;4.20;;
9972;SDS011;5027;53.560;10.062;2023-04-01T02:29:27;9.70;;;7.83;;
9972;SDS011;5027;53.560;10.062;2023-04-01T02:31:54;11.43;;;7.97;;
9972;SDS011;5027;53.560;10.062;2023-04-01T02:34:22;5.33;;;4.00;;
9972;SDS011;5027;53.560;10.062;2023-04-01T02:36:50;5.97;;;4.17;;
9972;SDS011;5027;53.560;10.062;2023-04-01T02:39:17;7.70;;;4.67;;
9972;SDS011;5027;53.560;10.062;2023-04-01T02:41:45;6.53;;;4.50;;
9972;SDS011;5027;53.560;10.062;2023-04-01T02:44:13;6.97;;;4.53;;
9972;SDS011;5027;53.560;10.062;2023-04-01T02:46:42;7.87;;;4.83;;
9972;SDS011;5027;53.560;10.062;2023-04-01T02:49:09;5.87;;;4.57;;
9972;SDS011;5027;53.560;10.062;2023-04-01T02:51:36;7.57;;;4.60;;
9972;SDS011;5027;53.560;10.062;2023-04-01T02:54:03;6.60;;;4.23;;
9972;SDS011;5027;53.560;10.062;2023-04-01T02:56:30;6.37;;;4.40;;
9972;SDS011;5027;53.560;10.062;2023-04-01T02:58:56;7.93;;;4.57;;
9972;SDS011;5027;53.560;10.062;2023-04-01T03:01:23;8.00;;;4.60;;
9972;SDS011;5027;53.560;10.062;2023-04-01T03:03:50;6.73;;;4.83;;
9972;SDS011;5027;53.560;10.062;2023-04-01T03:06:17;6.93;;;4.77;;
9972;SDS011;5027;53.560;10.062;2023-04-01T03:08:44;6.37;;;4.83;;
9972;SDS011;5027;53.560;10.062;2023-04-01T03:11:11;6.23;;;4.50;;
9972;SDS011;5027;53.560;10.062;2023-04-01T03:13:38;7.90;;;4.50;;
9972;SDS011;5027;53.560;10.062;2023-04-01T03:16:05;6.57;;;4.07;;
9972;SDS011;5027;53.560;10.062;2023-04-01T03:18:34;5.80;;;4.20;;
9972;SDS011;5027;53.560;10.062;2023-04-01T03:21:14;5.50;;;3.83;;
9972;SDS011;5027;53.560;10.062;2023-04-01T03:23:42;7.33;;;4.10;;
9972;SDS011;5027;53.560;10.062;2023-04-01T03:26:08;6.90;;;4.37;;
9972;SDS011;5027;53.560;10.062;2023-04-01T03:28:36;8.03;;;4.80;;
9972;SDS011;5027;53.560;10.062;2023-04-01T03:31:02;9.13;;;4.57;;
9972;SDS011;5027;53.560;10.062;2023-04-01T03:33:36;7.20;;;4.80;;
9972;SDS011;5027;53.560;10.062;2023-04-01T03:36:02;7.27;;;4.87;;
9972;SDS011;5027;53.560;10.062;2023-04-01T03:38:35;5.27;;;4.70;;
9972;SDS011;5027;53.560;10.062;2023-04-01T03:41:02;8.57;;;5.10;;
9972;SDS011;5027;53.560;10.062;2023-04-01T03:43:31;6.07;;;4.50;;
9972;SDS011;5027;53.560;10.062;2023-04-01T03:45:59;10.03;;;5.00;;
9972;SDS011;5027;53.560;10.062;2023-04-01T03:48:26;7.87;;;5.17;;
9972;SDS011;5027;53.560;10.062;2023-04-01T03:50:52;8.50;;;4.93;;
9972;SDS011;5027;53.560;10.062;2023-04-01T03:53:22;6.90;;;4.83;;
9972;SDS011;5027;53.560;10.062;2023-04-01T03:55:49;7.10;;;5.03;;
9972;SDS011;5027;53.560;10.062;2023-04-01T03:58:17;8.20;;;5.20;;
9972;SDS011;5027;53.560;10.062;2023-04-01T04:00:44;6.00;;;5.40;;
9972;SDS011;5027;53.560;10.062;2023-04-01T04:03:11;5.40;;;4.90;;
9972;SDS011;5027;53.560;10.062;2023-04-01T04:05:40;6.70;;;5.10;;
9972;SDS011;5027;53.560;10.062;2023-04-01T04:08:13;6.20;;;4.40;;
9972;SDS011;5027;53.560;10.062;2023-04-01T04:10:40;7.73;;;5.37;;
9972;SDS011;5027;53.560;10.062;2023-04-01T04:13:07;5.63;;;5.00;;
9972;SDS011;5027;53.560;10.062;2023-04-01T04:15:39;9.20;;;4.73;;
9972;SDS011;5027;53.560;10.062;2023-04-01T04:18:05;6.97;;;5.00;;
9972;SDS011;5027;53.560;10.062;2023-04-01T04:20:32;8.17;;;5.20;;
9972;SDS011;5027;53.560;10.062;2023-04-01T04:23:00;6.60;;;5.37;;
9972;SDS011;5027;53.560;10.062;2023-04-01T04:25:26;6.87;;;5.00;;
9972;SDS011;5027;53.560;10.062;2023-04-01T04:27:53;6.73;;;4.87;;
9972;SDS011;5027;53.560;10.062;2023-04-01T04:30:20;8.97;;;5.50;;
9972;SDS011;5027;53.560;10.062;2023-04-01T04:32:47;7.07;;;5.40;;
9972;SDS011;5027;53.560;10.062;2023-04-01T04:35:13;5.23;;;4.73;;
9972;SDS011;5027;53.560;10.062;2023-04-01T04:37:40;7.03;;;5.47;;
9972;SDS011;5027;53.560;10.062;2023-04-01T04:40:07;6.47;;;5.00;;
9972;SDS011;5027;53.560;10.062;2023-04-01T04:42:34;6.37;;;4.70;;
9972;SDS011;5027;53.560;10.062;2023-04-01T04:45:07;7.60;;;5.13;;
9972;SDS011;5027;53.560;10.062;2023-04-01T04:47:37;5.30;;;4.57;;
9972;SDS011;5027;53.560;10.062;2023-04-01T04:50:04;8.37;;;4.70;;
9972;SDS011;5027;53.560;10.062;2023-04-01T04:52:32;7.63;;;5.00;;
9972;SDS011;5027;53.560;10.062;2023-04-01T04:54:58;5.73;;;5.13;;
9972;SDS011;5027;53.560;10.062;2023-04-01T04:57:25;6.70;;;5.00;;
9972;SDS011;5027;53.560;10.062;2023-04-01T04:59:54;5.90;;;5.30;;
9972;SDS011;5027;53.560;10.062;2023-04-01T05:02:47;7.10;;;5.23;;
9972;SDS011;5027;53.560;10.062;2023-04-01T05:05:13;5.33;;;4.83;;
9972;SDS011;5027;53.560;10.062;2023-04-01T05:07:40;5.27;;;4.80;;
9972;SDS011;5027;53.560;10.062;2023-04-01T05:10:07;5.80;;;5.27;;
9972;SDS011;5027;53.560;10.062;2023-04-01T05:12:34;6.43;;;5.53;;
9972;SDS011;5027;53.560;10.062;2023-04-01T05:15:05;6.27;;;4.87;;
9972;SDS011;5027;53.560;10.062;2023-04-01T05:17:32;8.07;;;5.60;;
9972;SDS011;5027;53.560;10.062;2023-04-01T05:20:01;6.83;;;5.00;;
9972;SDS011;5027;53.560;10.062;2023-04-01T05:22:28;5.57;;;5.03;;
9972;SDS011;5027;53.560;10.062;2023-04-01T05:24:55;6.33;;;4.97;;
9972;SDS011;5027;53.560;10.062;2023-04-01T05:27:22;7.20;;;5.60;;
9972;SDS011;5027;53.560;10.062;2023-04-01T05:29:49;5.20;;;4.40;;
9972;SDS011;5027;53.560;10.062;2023-04-01T05:32:35;6.00;;;4.43;;
9972;SDS011;5027;53.560;10.062;2023-04-01T05:35:02;1.87;;;1.77;;
9972;SDS011;5027;53.560;10.062;2023-04-01T05:37:29;2.37;;;2.13;;
9972;SDS011;5027;53.560;10.062;2023-04-01T05:39:56;1.60;;;1.50;;
9972;SDS011;5027;53.560;10.062;2023-04-01T05:42:24;1.33;;;1.30;;
9972;SDS011;5027;53.560;10.062;2023-04-01T05:44:51;1.20;;;1.20;;
9972;SDS011;5027;53.560;10.062;2023-04-01T05:47:48;1.37;;;1.20;;
9972;SDS011;5027;53.560;10.062;2023-04-01T05:50:15;1.93;;;1.50;;
9972;SDS011;5027;53.560;10.062;2023-04-01T05:52:41;2.37;;;2.17;;
9972;SDS011;5027;53.560;10.062;2023-04-01T05:55:08;2.33;;;2.13;;
9972;SDS011;5027;53.560;10.062;2023-04-01T05:57:35;2.63;;;1.53;;
9972;SDS011;5027;53.560;10.062;2023-04-01T06:00:03;1.47;;;1.30;;
9972;SDS011;5027;53.560;10.062;2023-04-01T06:02:37;1.57;;;1.20;;
9972;SDS011;5027;53.560;10.062;2023-04-01T06:05:25;1.33;;;1.23;;
9972;SDS011;5027;53.560;10.062;2023-04-01T06:08:01;1.50;;;1.40;;
9972;SDS011;5027;53.560;10.062;2023-04-01T06:13:25;1.40;;;1.30;;
9972;SDS011;5027;53.560;10.062;2023-04-01T06:16:23;1.37;;;1.27;;
9972;SDS011;5027;53.560;10.062;2023-04-01T06:19:00;1.50;;;1.40;;
9972;SDS011;5027;53.560;10.062;2023-04-01T06:21:58;1.30;;;1.20;;
9972;SDS011;5027;53.560;10.062;2023-04-01T06:25:12;2.23;;;1.60;;
9972;SDS011;5027;53.560;10.062;2023-04-01T06:30:30;1.00;;;1.00;;
9972;SDS011;5027;53.560;10.062;2023-04-01T06:33:09;1.63;;;1.53;;
9972;SDS011;5027;53.560;10.062;2023-04-01T06:44:00;1.33;;;1.20;;
9972;SDS011;5027;53.560;10.062;2023-04-01T06:51:17;1.20;;;1.10;;
9972;SDS011;5027;53.560;10.062;2023-04-01T06:54:13;1.10;;;1.10;;
9972;SDS011;5027;53.560;10.062;2023-04-01T06:57:03;1.00;;;0.97;;
9972;SDS011;5027;53.560;10.062;2023-04-01T06:59:42;1.33;;;1.23;;
9972;SDS011;5027;53.560;10.062;2023-04-01T07:04:51;1.30;;;1.20;;
9972;SDS011;5027;53.560;10.062;2023-04-01T07:09:57;3.17;;;1.20;;
9972;SDS011;5027;53.560;10.062;2023-04-01T07:15:16;1.40;;;1.30;;
9972;SDS011;5027;53.560;10.062;2023-04-01T07:17:52;1.27;;;1.17;;
9972;SDS011;5027;53.560;10.062;2023-04-01T07:20:32;1.10;;;1.00;;
9972;SDS011;5027;53.560;10.062;2023-04-01T07:23:03;1.00;;;1.00;;
9972;SDS011;5027;53.560;10.062;2023-04-01T07:25:58;1.43;;;1.00;;
9972;SDS011;5027;53.560;10.062;2023-04-01T07:28:32;1.50;;;1.40;;
9972;SDS011;5027;53.560;10.062;2023-04-01T07:34:36;1.30;;;1.20;;
9972;SDS011;5027;53.560;10.062;2023-04-01T07:40:37;1.17;;;1.10;;
9972;SDS011;5027;53.560;10.062;2023-04-01T07:46:48;1.27;;;1.17;;
9972;SDS011;5027;53.560;10.062;2023-04-01T07:49:43;1.90;;;1.20;;
9972;SDS011;5027;53.560;10.062;2023-04-01T07:55:29;0.93;;;0.93;;
9972;SDS011;5027;53.560;10.062;2023-04-01T08:01:22;1.67;;;1.30;;
9972;SDS011;5027;53.560;10.062;2023-04-01T08:04:02;1.20;;;1.10;;
9972;SDS011;5027;53.560;10.062;2023-04-01T08:10:20;0.90;;;0.90;;
9972;SDS011;5027;53.560;10.062;2023-04-01T08:13:16;0.90;;;0.90;;
9972;SDS011;5027;53.560;10.062;2023-04-01T08:22:42;1.23;;;1.13;;
9972;SDS011;5027;53.560;10.062;2023-04-01T08:25:29;1.20;;;1.10;;
9972;SDS011;5027;53.560;10.062;2023-04-01T08:31:00;1.20;;;1.10;;
9972;SDS011;5027;53.560;10.062;2023-04-01T08:33:31;1.20;;;1.10;;
9972;SDS011;5027;53.560;10.062;2023-04-01T08:36:10;2.37;;;1.37;;
9972;SDS011;5027;53.560;10.062;2023-04-01T08:38:52;1.73;;;1.17;;
9972;SDS011;5027;53.560;10.062;2023-04-01T08:47:44;1.67;;;1.57;;
9972;SDS011;5027;53.560;10.062;2023-04-01T08:50:55;1.90;;;1.47;;
9972;SDS011;5027;53.560;10.062;2023-04-01T08:56:21;1.30;;;1.20;;
9972;SDS011;5027;53.560;10.062;2023-04-01T09:01:51;1.20;;;1.20;;
9972;SDS011;5027;53.560;10.062;2023-04-01T09:04:53;1.43;;;1.10;;
9972;SDS011;5027;53.560;10.062;2023-04-01T09:07:55;1.33;;;1.10;;
9972;SDS011;5027;53.560;10.062;2023-04-01T09:13:48;2.30;;;1.10;;
9972;SDS011;5027;53.560;10.062;2023-04-01T09:16:48;1.17;;;1.13;;
9972;SDS011;5027;53.560;10.062;2023-04-01T09:19:33;2.13;;;1.10;;
9972;SDS011;5027;53.560;10.062;2023-04-01T09:22:39;1.20;;;1.10;;
9972;SDS011;5027;53.560;10.062;2023-04-01T09:28:30;1.53;;;1.13;;
9972;SDS011;5027;53.560;10.062;2023-04-01T09:31:07;1.17;;;0.97;;
9972;SDS011;5027;53.560;10.062;2023-04-01T09:45:37;1.07;;;0.90;;
9972;SDS011;5027;53.560;10.062;2023-04-01T09:48:31;1.20;;;1.10;;
9972;SDS011;5027;53.560;10.062;2023-04-01T10:02:05;1.67;;;1.10;;
9972;SDS011;5027;53.560;10.062;2023-04-01T10:14:10;0.70;;;0.70;;
9972;SDS011;5027;53.560;10.062;2023-04-01T10:19:58;0.70;;;0.70;;
9972;SDS011;5027;53.560;10.062;2023-04-01T10:22:47;0.97;;;0.90;;
9972;SDS011;5027;53.560;10.062;2023-04-01T10:34:39;1.10;;;1.00;;
9972;SDS011;5027;53.560;10.062;2023-04-01T10:40:24;2.03;;;0.90;;
9972;SDS011;5027;53.560;10.062;2023-04-01T10:46:25;0.90;;;0.80;;
9972;SDS011;5027;53.560;10.062;2023-04-01T10:49:14;1.47;;;1.07;;
9972;SDS011;5027;53.560;10.062;2023-04-01T10:52:11;0.80;;;0.80;;
9972;SDS011;5027;53.560;10.062;2023-04-01T11:11:10;0.80;;;0.80;;
9972;SDS011;5027;53.560;10.062;2023-04-01T11:16:55;1.00;;;0.90;;
9972;SDS011;5027;53.560;10.062;2023-04-01T11:19:52;1.03;;;1.00;;
9972;SDS011;5027;53.560;10.062;2023-04-01T11:25:48;1.20;;;1.10;;
9972;SDS011;5027;53.560;10.062;2023-04-01T11:34:13;2.13;;;1.47;;
9972;SDS011;5027;53.560;10.062;2023-04-01T11:36:59;2.83;;;1.23;;
9972;SDS011;5027;53.560;10.062;2023-04-01T11:43:28;1.40;;;1.30;;
9972;SDS011;5027;53.560;10.062;2023-04-01T11:46:43;1.53;;;1.30;;
9972;SDS011;5027;53.560;10.062;2023-04-01T11:49:29;1.93;;;1.30;;
9972;SDS011;5027;53.560;10.062;2023-04-01T11:58:22;3.20;;;1.77;;
9972;SDS011;5027;53.560;10.062;2023-04-01T12:01:20;2.97;;;2.27;;
9972;SDS011;5027;53.560;10.062;2023-04-01T12:07:15;3.07;;;2.00;;
9972;SDS011;5027;53.560;10.062;2023-04-01T12:12:38;2.73;;;2.20;;
9972;SDS011;5027;53.560;10.062;2023-04-01T12:21:09;2.60;;;2.40;;
9972;SDS011;5027;53.560;10.062;2023-04-01T12:34:58;2.50;;;2.30;;
9972;SDS011;5027;53.560;10.062;2023-04-01T12:37:54;3.27;;;2.30;;
9972;SDS011;5027;53.560;10.062;2023-04-01T12:43:35;2.53;;;2.07;;
9972;SDS011;5027;53.560;10.062;2023-04-01T12:51:46;2.50;;;2.00;;
9972;SDS011;5027;53.560;10.062;2023-04-01T12:54:26;3.00;;;2.20;;
9972;SDS011;5027;53.560;10.062;2023-04-01T13:02:40;2.83;;;2.47;;
9972;SDS011;5027;53.560;10.062;2023-04-01T13:11:36;2.90;;;2.17;;
9972;SDS011;5027;53.560;10.062;2023-04-01T13:17:17;3.03;;;1.93;;
9972;SDS011;5027;53.560;10.062;2023-04-01T13:22:56;2.47;;;2.10;;
9972;SDS011;5027;53.560;10.062;2023-04-01T13:25:44;4.23;;;3.17;;
9972;SDS011;5027;53.560;10.062;2023-04-01T13:28:47;3.33;;;2.20;;
9972;SDS011;5027;53.560;10.062;2023-04-01T13:42:25;5.30;;;2.57;;
9972;SDS011;5027;53.560;10.062;2023-04-01T13:45:01;3.27;;;2.40;;
9972;SDS011;5027;53.560;10.062;2023-04-01T13:47:45;5.50;;;2.70;;
9972;SDS011;5027;53.560;10.062;2023-04-01T13:53:15;3.90;;;2.40;;
9972;SDS011;5027;53.560;10.062;2023-04-01T14:06:49;4.27;;;2.40;;
9972;SDS011;5027;53.560;10.062;2023-04-01T14:18:15;5.53;;;3.00;;
9972;SDS011;5027;53.560;10.062;2023-04-01T14:21:13;6.13;;;3.07;;
9972;SDS011;5027;53.560;10.062;2023-04-01T14:41:17;6.47;;;2.83;;
9972;SDS011;5027;53.560;10.062;2023-04-01T14:49:15;6.57;;;3.70;;
9972;SDS011;5027;53.560;10.062;2023-04-01T14:51:56;4.60;;;3.00;;
9972;SDS011;5027;53.560;10.062;2023-04-01T14:54:38;5.97;;;3.63;;
9972;SDS011;5027;53.560;10.062;2023-04-01T14:59:41;4.53;;;3.10;;
9972;SDS011;5027;53.560;10.062;2023-04-01T15:05:10;5.73;;;3.50;;
9972;SDS011;5027;53.560;10.062;2023-04-01T15:07:54;4.93;;;3.60;;
9972;SDS011;5027;53.560;10.062;2023-04-01T15:24:46;4.80;;;3.10;;
9972;SDS011;5027;53.560;10.062;2023-04-01T15:27:37;4.67;;;3.30;;
9972;SDS011;5027;53.560;10.062;2023-04-01T15:32:55;5.60;;;3.20;;
9972;SDS011;5027;53.560;10.062;2023-04-01T15:35:52;8.00;;;3.33;;
9972;SDS011;5027;53.560;10.062;2023-04-01T15:41:35;5.40;;;3.20;;
9972;SDS011;5027;53.560;10.062;2023-04-01T15:46:56;6.17;;;3.40;;
9972;SDS011;5027;53.560;10.062;2023-04-01T15:58:18;5.80;;;3.43;;
9972;SDS011;5027;53.560;10.062;2023-04-01T16:00:58;6.10;;;3.57;;
9972;SDS011;5027;53.560;10.062;2023-04-01T16:03:48;7.40;;;3.53;;
9972;SDS011;5027;53.560;10.062;2023-04-01T16:06:32;6.60;;;3.73;;
9972;SDS011;5027;53.560;10.062;2023-04-01T16:09:59;5.17;;;3.33;;
9972;SDS011;5027;53.560;10.062;2023-04-01T16:12:31;4.70;;;3.07;;
9972;SDS011;5027;53.560;10.062;2023-04-01T16:18:23;5.20;;;3.50;;
9972;SDS011;5027;53.560;10.062;2023-04-01T16:21:12;5.27;;;3.37;;
9972;SDS011;5027;53.560;10.062;2023-04-01T16:26:25;6.50;;;3.93;;
9972;SDS011;5027;53.560;10.062;2023-04-01T16:29:09;6.70;;;3.50;;
9972;SDS011;5027;53.560;10.062;2023-04-01T16:34:35;5.30;;;3.77;;
9972;SDS011;5027;53.560;10.062;2023-04-01T16:37:09;4.97;;;3.83;;
9972;SDS011;5027;53.560;10.062;2023-04-01T16:45:36;5.90;;;3.23;;
9972;SDS011;5027;53.560;10.062;2023-04-01T16:51:35;5.47;;;3.43;;
9972;SDS011;5027;53.560;10.062;2023-04-01T16:54:36;5.13;;;3.10;;
9972;SDS011;5027;53.560;10.062;2023-04-01T16:57:21;6.80;;;3.80;;
9972;SDS011;5027;53.560;10.062;2023-04-01T17:06:06;8.60;;;4.03;;
9972;SDS011;5027;53.560;10.062;2023-04-01T17:11:48;7.73;;;3.90;;
9972;SDS011;5027;53.560;10.062;2023-04-01T17:17:29;8.13;;;4.33;;
9972;SDS011;5027;53.560;10.062;2023-04-01T17:25:13;6.17;;;4.07;;
9972;SDS011;5027;53.560;10.062;2023-04-01T17:27:51;9.87;;;4.70;;
9972;SDS011;5027;53.560;10.062;2023-04-01T17:30:39;7.60;;;4.10;;
9972;SDS011;5027;53.560;10.062;2023-04-01T17:33:20;3.10;;;2.73;;
9972;SDS011;5027;53.560;10.062;2023-04-01T17:36:09;4.33;;;2.17;;
9972;SDS011;5027;53.560;10.062;2023-04-01T17:42:15;4.93;;;2.80;;
9972;SDS011;5027;53.560;10.062;2023-04-01T17:59:22;4.50;;;3.40;;
9972;SDS011;5027;53.560;10.062;2023-04-01T18:24:56;4.30;;;2.97;;
9972;SDS011;5027;53.560;10.062;2023-04-01T18:27:46;3.87;;;3.00;;
9972;SDS011;5027;53.560;10.062;2023-04-01T18:30:27;5.70;;;2.83;;
9972;SDS011;5027;53.560;10.062;2023-04-01T18:35:53;4.80;;;3.10;;
9972;SDS011;5027;53.560;10.062;2023-04-01T18:38:47;5.43;;;3.30;;
9972;SDS011;5027;53.560;10.062;2023-04-01T18:41:25;5.03;;;3.03;;
9972;SDS011;5027;53.560;10.062;2023-04-01T18:49:21;4.77;;;2.90;;
9972;SDS011;5027;53.560;10.062;2023-04-01T18:52:20;3.63;;;2.90;;
9972;SDS011;5027;53.560;10.062;2023-04-01T18:55:18;5.63;;;2.90;;
9972;SDS011;5027;53.560;10.062;2023-04-01T18:57:58;5.60;;;2.97;;
9972;SDS011;5027;53.560;10.062;2023-04-01T19:00:37;3.20;;;2.80;;
9972;SDS011;5027;53.560;10.062;2023-04-01T19:05:48;2.73;;;2.40;;
9972;SDS011;5027;53.560;10.062;2023-04-01T19:11:13;3.73;;;2.77;;
9972;SDS011;5027;53.560;10.062;2023-04-01T19:14:05;4.60;;;2.43;;
9972;SDS011;5027;53.560;10.062;2023-04-01T19:16:59;4.63;;;2.67;;
9972;SDS011;5027;53.560;10.062;2023-04-01T19:19:51;4.67;;;2.80;;
9972;SDS011;5027;53.560;10.062;2023-04-01T19:31:19;6.40;;;3.30;;
9972;SDS011;5027;53.560;10.062;2023-04-01T19:34:07;10.93;;;7.67;;
9972;SDS011;5027;53.560;10.062;2023-04-01T19:36:55;6.17;;;4.53;;
9972;SDS011;5027;53.560;10.062;2023-04-01T19:50:45;4.77;;;2.90;;
9972;SDS011;5027;53.560;10.062;2023-04-01T19:53:29;5.53;;;3.13;;
9972;SDS011;5027;53.560;10.062;2023-04-01T19:58:54;3.60;;;2.33;;
9972;SDS011;5027;53.560;10.062;2023-04-01T20:01:22;6.17;;;2.63;;
9972;SDS011;5027;53.560;10.062;2023-04-01T20:04:53;4.53;;;2.70;;
9972;SDS011;5027;53.560;10.062;2023-04-01T20:07:18;3.30;;;2.03;;
9972;SDS011;5027;53.560;10.062;2023-04-01T20:10:17;5.97;;;2.70;;
9972;SDS011;5027;53.560;10.062;2023-04-01T20:13:20;4.10;;;2.60;;
9972;SDS011;5027;53.560;10.062;2023-04-01T20:16:06;4.23;;;2.27;;
9972;SDS011;5027;53.560;10.062;2023-04-01T20:18:36;5.50;;;2.10;;
9972;SDS011;5027;53.560;10.062;2023-04-01T20:21:35;3.60;;;2.43;;
9972;SDS011;5027;53.560;10.062;2023-04-01T20:26:50;4.90;;;2.70;;
9972;SDS011;5027;53.560;10.062;2023-04-01T20:40:44;5.30;;;2.73;;
9972;SDS011;5027;53.560;10.062;2023-04-01T20:46:11;5.17;;;3.10;;
9972;SDS011;5027;53.560;10.062;2023-04-01T20:51:46;4.33;;;2.87;;
9972;SDS011;5027;53.560;10.062;2023-04-01T20:57:24;4.20;;;2.53;;
9972;SDS011;5027;53.560;10.062;2023-04-01T21:00:17;4.83;;;2.63;;
9972;SDS011;5027;53.560;10.062;2023-04-01T21:03:13;4.40;;;2.73;;
9972;SDS011;5027;53.560;10.062;2023-04-01T21:11:56;4.40;;;2.50;;
9972;SDS011;5027;53.560;10.062;2023-04-01T21:23:02;5.77;;;3.03;;
9972;SDS011;5027;53.560;10.062;2023-04-01T21:29:04;4.93;;;2.50;;
9972;SDS011;5027;53.560;10.062;2023-04-01T21:34:42;4.77;;;2.40;;
9972;SDS011;5027;53.560;10.062;2023-04-01T21:42:58;2.30;;;1.77;;
9972;SDS011;5027;53.560;10.062;2023-04-01T21:45:50;4.77;;;2.57;;
9972;SDS011;5027;53.560;10.062;2023-04-01T21:48:45;3.97;;;2.50;;
9972;SDS011;5027;53.560;10.062;2023-04-01T21:59:39;4.40;;;2.37;;
9972;SDS011;5027;53.560;10.062;2023-04-01T22:11:02;3.90;;;2.37;;
9972;SDS011;5027;53.560;10.062;2023-04-01T22:14:03;4.00;;;1.97;;
9972;SDS011;5027;53.560;10.062;2023-04-01T22:16:41;4.80;;;2.40;;
9972;SDS011;5027;53.560;10.062;2023-04-01T22:19:21;3.43;;;1.97;;
9972;SDS011;5027;53.560;10.062;2023-04-01T22:22:01;7.93;;;2.20;;
9972;SDS011;5027;53.560;10.062;2023-04-01T22:25:11;4.57;;;2.00;;
9972;SDS011;5027;53.560;10.062;2023-04-01T22:27:45;5.63;;;2.30;;
9972;SDS011;5027;53.560;10.062;2023-04-01T22:30:27;4.50;;;1.77;;
9972;SDS011;5027;53.560;10.062;2023-04-01T22:35:58;2.07;;;1.60;;
9972;SDS011;5027;53.560;10.062;2023-04-01T22:41:17;4.00;;;1.90;;
9972;SDS011;5027;53.560;10.062;2023-04-01T22:44:05;4.80;;;2.07;;
9972;SDS011;5027;53.560;10.062;2023-04-01T22:46:46;4.77;;;1.90;;
9972;SDS011;5027;53.560;10.062;2023-04-01T22:49:50;4.57;;;2.43;;
9972;SDS011;5027;53.560;10.062;2023-04-01T22:52:38;3.67;;;1.87;;
9972;SDS011;5027;53.560;10.062;2023-04-01T22:55:10;4.63;;;2.20;;
9972;SDS011;5027;53.560;10.062;2023-04-01T22:58:03;3.83;;;2.37;;
9972;SDS011;5027;53.560;10.062;2023-04-01T23:03:14;4.33;;;2.13;;
9972;SDS011;5027;53.560;10.062;2023-04-01T23:06:01;3.70;;;1.80;;
9972;SDS011;5027;53.560;10.062;2023-04-01T23:11:43;4.93;;;2.10;;
9972;SDS011;5027;53.560;10.062;2023-04-01T23:16:51;6.30;;;2.40;;
9972;SDS011;5027;53.560;10.062;2023-04-01T23:19:45;5.47;;;2.37;;
9972;SDS011;5027;53.560;10.062;2023-04-01T23:22:33;5.30;;;2.20;;
9972;SDS011;5027;53.560;10.062;2023-04-01T23:35:51;4.53;;;2.30;;
9972;SDS011;5027;53.560;10.062;2023-04-01T23:38:20;2.03;;;1.60;;
9972;SDS011;5027;53.560;10.062;2023-04-01T23:40:53;3.47;;;1.83;;
9972;SDS011;5027;53.560;10.062;2023-04-01T23:43:22;2.37;;;1.50;;
9972;SDS011;5027;53.560;10.062;2023-04-01T23:45:57;4.80;;;1.93;;
9972;SDS011;5027;53.560;10.062;2023-04-01T23:48:28;2.93;;;1.80;;
9972;SDS011;5027;53.560;10.062;2023-04-01T23:51:01;3.57;;;1.83;;
9972;SDS011;5027;53.560;10.062;2023-04-01T23:53:30;2.00;;;1.50;;
9972;SDS011;5027;53.560;10.062;2023-04-01T23:56:01;4.07;;;2.23;;
9972;SDS011;5027;53.560;10.062;2023-04-01T23:58:42;3.57;;;1.83;;
